sensor_id;sensor_type;location;lat;lon;timestamp;pressure;altitude;pressure_sealevel;temperature;humidity
62436;BME280;48480;50.252;18.848;2023-04-24T00:01:06;97788.25;;;13.78;51.20
62436;BME280;48480;50.252;18.848;2023-04-24T00:03:51;97781.22;;;13.77;51.40
62436;BME280;48480;50.252;18.848;2023-04-24T00:06:35;97780.20;;;13.76;51.26
62436;BME280;48480;50.252;18.848;2023-04-24T00:09:20;97777.93;;;13.75;51.46
62436;BME280;48480;50.252;18.848;2023-04-24T00:12:04;97778.66;;;13.73;51.45
62436;BME280;48480;50.252;18.848;2023-04-24T00:14:48;97777.04;;;13.69;51.04
62436;BME280;48480;50.252;18.848;2023-04-24T00:17:33;97774.89;;;13.66;51.15
62436;BME280;48480;50.252;18.848;2023-04-24T00:20:18;97769.71;;;13.65;50.93
62436;BME280;48480;50.252;18.848;2023-04-24T00:23:03;97767.09;;;13.65;50.70
62436;BME280;48480;50.252;18.848;2023-04-24T00:25:48;97761.83;;;13.63;50.86
62436;BME280;48480;50.252;18.848;2023-04-24T00:28:32;97760.54;;;13.60;50.64
62436;BME280;48480;50.252;18.848;2023-04-24T00:31:16;97757.98;;;13.60;50.41
62436;BME280;48480;50.252;18.848;2023-04-24T00:34:01;97753.95;;;13.62;49.93
62436;BME280;48480;50.252;18.848;2023-04-24T00:36:46;97747.11;;;13.63;49.53
62436;BME280;48480;50.252;18.848;2023-04-24T00:39:32;97745.86;;;13.66;49.63
62436;BME280;48480;50.252;18.848;2023-04-24T00:42:17;97742.69;;;13.69;49.36
62436;BME280;48480;50.252;18.848;2023-04-24T00:45:02;97740.80;;;13.71;49.31
62436;BME280;48480;50.252;18.848;2023-04-24T00:47:48;97738.92;;;13.72;49.32
62436;BME280;48480;50.252;18.848;2023-04-24T00:50:32;97737.58;;;13.74;49.22
62436;BME280;48480;50.252;18.848;2023-04-24T00:53:16;97737.19;;;13.74;49.13
62436;BME280;48480;50.252;18.848;2023-04-24T00:56:01;97732.59;;;13.72;48.96
62436;BME280;48480;50.252;18.848;2023-04-24T00:58:46;97730.66;;;13.65;48.90
62436;BME280;48480;50.252;18.848;2023-04-24T01:01:31;97731.52;;;13.61;48.99
62436;BME280;48480;50.252;18.848;2023-04-24T01:04:16;97731.08;;;13.58;49.01
62436;BME280;48480;50.252;18.848;2023-04-24T01:07:01;97731.04;;;13.57;49.06
62436;BME280;48480;50.252;18.848;2023-04-24T01:09:45;97726.02;;;13.56;48.87
62436;BME280;48480;50.252;18.848;2023-04-24T01:12:32;97721.79;;;13.53;48.76
62436;BME280;48480;50.252;18.848;2023-04-24T01:15:18;97718.36;;;13.51;48.87
62436;BME280;48480;50.252;18.848;2023-04-24T01:18:03;97717.05;;;13.50;48.79
62436;BME280;48480;50.252;18.848;2023-04-24T01:20:51;97713.09;;;13.49;48.79
62436;BME280;48480;50.252;18.848;2023-04-24T01:23:37;97711.04;;;13.47;48.75
62436;BME280;48480;50.252;18.848;2023-04-24T01:26:22;97712.92;;;13.44;48.49
62436;BME280;48480;50.252;18.848;2023-04-24T01:29:06;97715.61;;;13.44;48.44
62436;BME280;48480;50.252;18.848;2023-04-24T01:31:51;97713.02;;;13.42;48.27
62436;BME280;48480;50.252;18.848;2023-04-24T01:34:35;97710.94;;;13.41;48.19
62436;BME280;48480;50.252;18.848;2023-04-24T01:37:19;97706.44;;;13.40;48.28
62436;BME280;48480;50.252;18.848;2023-04-24T01:40:07;97708.92;;;13.38;48.39
62436;BME280;48480;50.252;18.848;2023-04-24T01:42:52;97706.84;;;13.33;48.21
62436;BME280;48480;50.252;18.848;2023-04-24T01:45:37;97702.15;;;13.28;48.29
62436;BME280;48480;50.252;18.848;2023-04-24T01:48:22;97698.30;;;13.21;48.45
62436;BME280;48480;50.252;18.848;2023-04-24T01:51:06;97696.41;;;13.13;48.47
62436;BME280;48480;50.252;18.848;2023-04-24T01:53:51;97696.36;;;13.06;48.59
62436;BME280;48480;50.252;18.848;2023-04-24T01:56:36;97695.66;;;13.03;48.59
62436;BME280;48480;50.252;18.848;2023-04-24T01:59:21;97695.28;;;13.00;48.64
62436;BME280;48480;50.252;18.848;2023-04-24T02:02:07;97696.30;;;12.94;48.58
62436;BME280;48480;50.252;18.848;2023-04-24T02:04:51;97694.16;;;12.91;48.53
62436;BME280;48480;50.252;18.848;2023-04-24T02:07:35;97693.13;;;12.90;48.54
62436;BME280;48480;50.252;18.848;2023-04-24T02:10:19;97688.10;;;12.89;48.60
62436;BME280;48480;50.252;18.848;2023-04-24T02:13:03;97688.43;;;12.90;48.56
62436;BME280;48480;50.252;18.848;2023-04-24T02:15:48;97691.15;;;12.88;48.61
62436;BME280;48480;50.252;18.848;2023-04-24T02:18:32;97681.80;;;12.86;48.61
62436;BME280;48480;50.252;18.848;2023-04-24T02:21:16;97678.73;;;12.82;48.64
62436;BME280;48480;50.252;18.848;2023-04-24T02:24:01;97675.51;;;12.79;48.52
62436;BME280;48480;50.252;18.848;2023-04-24T02:26:46;97675.84;;;12.77;48.43
62436;BME280;48480;50.252;18.848;2023-04-24T02:29:30;97672.92;;;12.74;48.41
62436;BME280;48480;50.252;18.848;2023-04-24T02:32:15;97663.01;;;12.68;48.30
62436;BME280;48480;50.252;18.848;2023-04-24T02:35:00;97664.98;;;12.74;48.33
62436;BME280;48480;50.252;18.848;2023-04-24T02:37:44;97664.27;;;12.73;48.09
62436;BME280;48480;50.252;18.848;2023-04-24T02:40:28;97667.11;;;12.69;48.03
62436;BME280;48480;50.252;18.848;2023-04-24T02:43:12;97669.77;;;12.68;48.09
62436;BME280;48480;50.252;18.848;2023-04-24T02:45:56;97669.56;;;12.69;47.89
62436;BME280;48480;50.252;18.848;2023-04-24T02:48:40;97668.09;;;12.72;47.88
62436;BME280;48480;50.252;18.848;2023-04-24T02:51:24;97667.66;;;12.73;47.73
62436;BME280;48480;50.252;18.848;2023-04-24T02:54:09;97665.34;;;12.72;47.67
62436;BME280;48480;50.252;18.848;2023-04-24T02:56:56;97666.52;;;12.73;47.61
62436;BME280;48480;50.252;18.848;2023-04-24T02:59:40;97664.69;;;12.74;47.46
62436;BME280;48480;50.252;18.848;2023-04-24T03:02:24;97666.23;;;12.77;47.36
62436;BME280;48480;50.252;18.848;2023-04-24T03:05:08;97668.32;;;12.81;47.29
62436;BME280;48480;50.252;18.848;2023-04-24T03:07:53;97670.23;;;12.80;47.19
62436;BME280;48480;50.252;18.848;2023-04-24T03:10:36;97668.96;;;12.79;47.21
62436;BME280;48480;50.252;18.848;2023-04-24T03:13:20;97668.58;;;12.79;47.14
62436;BME280;48480;50.252;18.848;2023-04-24T03:16:04;97665.27;;;12.79;47.03
62436;BME280;48480;50.252;18.848;2023-04-24T03:18:49;97665.23;;;12.80;46.70
62436;BME280;48480;50.252;18.848;2023-04-24T03:21:33;97663.02;;;12.78;46.55
62436;BME280;48480;50.252;18.848;2023-04-24T03:24:17;97663.14;;;12.80;46.51
62436;BME280;48480;50.252;18.848;2023-04-24T03:27:01;97665.42;;;12.82;46.41
62436;BME280;48480;50.252;18.848;2023-04-24T03:29:44;97662.91;;;12.83;46.35
62436;BME280;48480;50.252;18.848;2023-04-24T03:32:28;97661.05;;;12.86;46.31
62436;BME280;48480;50.252;18.848;2023-04-24T03:35:12;97664.59;;;12.86;46.18
62436;BME280;48480;50.252;18.848;2023-04-24T03:37:56;97662.39;;;12.88;46.12
62436;BME280;48480;50.252;18.848;2023-04-24T03:40:41;97659.27;;;12.89;45.92
62436;BME280;48480;50.252;18.848;2023-04-24T03:43:25;97662.55;;;12.91;45.83
62436;BME280;48480;50.252;18.848;2023-04-24T03:46:11;97663.95;;;12.92;45.85
62436;BME280;48480;50.252;18.848;2023-04-24T03:48:55;97660.08;;;12.94;45.74
62436;BME280;48480;50.252;18.848;2023-04-24T03:51:39;97658.71;;;12.98;45.44
62436;BME280;48480;50.252;18.848;2023-04-24T03:54:23;97657.16;;;13.01;45.25
62436;BME280;48480;50.252;18.848;2023-04-24T03:57:07;97658.88;;;13.02;45.14
62436;BME280;48480;50.252;18.848;2023-04-24T03:59:51;97665.02;;;13.02;45.10
62436;BME280;48480;50.252;18.848;2023-04-24T04:02:35;97658.02;;;13.01;45.17
62436;BME280;48480;50.252;18.848;2023-04-24T04:05:19;97658.58;;;13.02;45.12
62436;BME280;48480;50.252;18.848;2023-04-24T04:08:03;97658.23;;;13.01;45.09
62436;BME280;48480;50.252;18.848;2023-04-24T04:10:47;97662.27;;;13.03;44.96
62436;BME280;48480;50.252;18.848;2023-04-24T04:13:31;97660.39;;;13.04;44.70
62436;BME280;48480;50.252;18.848;2023-04-24T04:16:15;97657.48;;;13.08;44.68
62436;BME280;48480;50.252;18.848;2023-04-24T04:19:02;97658.12;;;13.13;44.72
62436;BME280;48480;50.252;18.848;2023-04-24T04:21:46;97658.67;;;13.17;44.77
62436;BME280;48480;50.252;18.848;2023-04-24T04:24:35;97659.80;;;13.23;44.69
62436;BME280;48480;50.252;18.848;2023-04-24T04:27:21;97660.67;;;13.28;44.45
62436;BME280;48480;50.252;18.848;2023-04-24T04:30:05;97658.92;;;13.31;44.19
62436;BME280;48480;50.252;18.848;2023-04-24T04:32:49;97658.76;;;13.34;43.87
62436;BME280;48480;50.252;18.848;2023-04-24T04:35:33;97656.68;;;13.38;43.81
62436;BME280;48480;50.252;18.848;2023-04-24T04:38:19;97655.21;;;13.46;43.85
62436;BME280;48480;50.252;18.848;2023-04-24T04:41:03;97658.55;;;13.51;43.63
62436;BME280;48480;50.252;18.848;2023-04-24T04:43:47;97658.27;;;13.55;43.51
62436;BME280;48480;50.252;18.848;2023-04-24T04:46:32;97660.75;;;13.60;43.33
62436;BME280;48480;50.252;18.848;2023-04-24T04:49:17;97655.60;;;13.64;43.37
62436;BME280;48480;50.252;18.848;2023-04-24T04:52:01;97652.80;;;13.70;43.45
62436;BME280;48480;50.252;18.848;2023-04-24T04:54:45;97655.42;;;13.75;43.29
62436;BME280;48480;50.252;18.848;2023-04-24T04:57:30;97658.23;;;13.81;43.25
62436;BME280;48480;50.252;18.848;2023-04-24T05:00:14;97659.65;;;13.91;43.20
62436;BME280;48480;50.252;18.848;2023-04-24T05:02:59;97660.95;;;13.98;43.01
62436;BME280;48480;50.252;18.848;2023-04-24T05:05:43;97659.45;;;14.06;42.73
62436;BME280;48480;50.252;18.848;2023-04-24T05:08:27;97662.13;;;14.17;42.72
62436;BME280;48480;50.252;18.848;2023-04-24T05:11:11;97661.56;;;14.29;42.38
62436;BME280;48480;50.252;18.848;2023-04-24T05:13:56;97660.87;;;14.42;42.38
62436;BME280;48480;50.252;18.848;2023-04-24T05:16:40;97663.52;;;14.54;42.41
62436;BME280;48480;50.252;18.848;2023-04-24T05:19:24;97665.07;;;14.61;41.99
62436;BME280;48480;50.252;18.848;2023-04-24T05:22:08;97664.54;;;14.67;41.87
62436;BME280;48480;50.252;18.848;2023-04-24T05:24:54;97660.59;;;14.75;41.74
62436;BME280;48480;50.252;18.848;2023-04-24T05:27:38;97659.77;;;14.88;41.68
62436;BME280;48480;50.252;18.848;2023-04-24T05:30:23;97656.49;;;15.01;41.68
62436;BME280;48480;50.252;18.848;2023-04-24T05:33:07;97655.11;;;15.13;41.54
62436;BME280;48480;50.252;18.848;2023-04-24T05:35:52;97654.37;;;15.25;41.29
62436;BME280;48480;50.252;18.848;2023-04-24T05:38:36;97651.04;;;15.42;40.90
62436;BME280;48480;50.252;18.848;2023-04-24T05:41:20;97653.70;;;15.71;40.44
62436;BME280;48480;50.252;18.848;2023-04-24T05:44:04;97649.86;;;16.31;39.55
62436;BME280;48480;50.252;18.848;2023-04-24T05:46:48;97650.29;;;16.72;38.80
62436;BME280;48480;50.252;18.848;2023-04-24T05:49:32;97647.35;;;17.19;38.29
62436;BME280;48480;50.252;18.848;2023-04-24T05:52:16;97646.42;;;18.31;37.22
62436;BME280;48480;50.252;18.848;2023-04-24T05:55:00;97647.48;;;19.53;35.54
62436;BME280;48480;50.252;18.848;2023-04-24T05:57:44;97642.30;;;20.69;33.83
62436;BME280;48480;50.252;18.848;2023-04-24T06:00:28;97636.06;;;21.76;32.13
62436;BME280;48480;50.252;18.848;2023-04-24T06:03:12;97637.66;;;22.72;30.56
62436;BME280;48480;50.252;18.848;2023-04-24T06:05:56;97637.88;;;23.51;29.02
62436;BME280;48480;50.252;18.848;2023-04-24T06:08:41;97638.02;;;24.02;28.03
62436;BME280;48480;50.252;18.848;2023-04-24T06:11:27;97633.67;;;24.56;27.77
62436;BME280;48480;50.252;18.848;2023-04-24T06:14:12;97636.52;;;25.09;26.64
62436;BME280;48480;50.252;18.848;2023-04-24T06:16:57;97631.73;;;25.53;25.70
62436;BME280;48480;50.252;18.848;2023-04-24T06:19:40;97633.05;;;25.81;25.37
62436;BME280;48480;50.252;18.848;2023-04-24T06:22:25;97629.86;;;26.14;25.06
62436;BME280;48480;50.252;18.848;2023-04-24T06:25:09;97629.91;;;26.29;23.93
62436;BME280;48480;50.252;18.848;2023-04-24T06:27:54;97625.63;;;26.02;24.08
62436;BME280;48480;50.252;18.848;2023-04-24T06:30:38;97623.48;;;25.98;24.10
62436;BME280;48480;50.252;18.848;2023-04-24T06:33:22;97621.11;;;26.03;23.87
62436;BME280;48480;50.252;18.848;2023-04-24T06:36:06;97622.77;;;26.23;23.57
62436;BME280;48480;50.252;18.848;2023-04-24T06:38:51;97615.95;;;26.43;22.91
62436;BME280;48480;50.252;18.848;2023-04-24T06:41:35;97613.14;;;26.47;22.96
62436;BME280;48480;50.252;18.848;2023-04-24T06:44:19;97618.92;;;26.61;22.77
62436;BME280;48480;50.252;18.848;2023-04-24T06:47:04;97618.58;;;26.74;22.73
62436;BME280;48480;50.252;18.848;2023-04-24T06:49:48;97614.81;;;26.90;22.51
62436;BME280;48480;50.252;18.848;2023-04-24T06:52:34;97615.25;;;27.04;22.24
62436;BME280;48480;50.252;18.848;2023-04-24T06:55:19;97615.83;;;27.10;22.14
62436;BME280;48480;50.252;18.848;2023-04-24T06:58:03;97617.70;;;27.23;22.01
62436;BME280;48480;50.252;18.848;2023-04-24T07:00:48;97617.27;;;27.35;21.40
62436;BME280;48480;50.252;18.848;2023-04-24T07:03:33;97615.68;;;27.42;20.83
62436;BME280;48480;50.252;18.848;2023-04-24T07:06:17;97611.71;;;27.53;20.81
62436;BME280;48480;50.252;18.848;2023-04-24T07:09:07;97613.34;;;27.59;20.59
62436;BME280;48480;50.252;18.848;2023-04-24T07:11:53;97612.61;;;27.49;20.41
62436;BME280;48480;50.252;18.848;2023-04-24T07:14:37;97608.85;;;27.46;20.47
62436;BME280;48480;50.252;18.848;2023-04-24T07:17:21;97604.13;;;27.48;20.43
62436;BME280;48480;50.252;18.848;2023-04-24T07:20:06;97605.90;;;27.55;20.38
62436;BME280;48480;50.252;18.848;2023-04-24T07:22:53;97603.33;;;27.62;20.20
62436;BME280;48480;50.252;18.848;2023-04-24T07:25:38;97599.50;;;27.57;19.94
62436;BME280;48480;50.252;18.848;2023-04-24T07:28:23;97597.00;;;27.50;20.07
62436;BME280;48480;50.252;18.848;2023-04-24T07:31:10;97598.86;;;27.44;20.14
62436;BME280;48480;50.252;18.848;2023-04-24T07:33:56;97598.67;;;27.41;19.82
62436;BME280;48480;50.252;18.848;2023-04-24T07:36:41;97596.48;;;27.35;19.54
62436;BME280;48480;50.252;18.848;2023-04-24T07:39:26;97595.94;;;27.05;19.44
62436;BME280;48480;50.252;18.848;2023-04-24T07:42:10;97599.66;;;26.68;19.90
62436;BME280;48480;50.252;18.848;2023-04-24T07:44:54;97599.33;;;26.34;20.20
62436;BME280;48480;50.252;18.848;2023-04-24T07:47:39;97599.50;;;26.06;20.57
62436;BME280;48480;50.252;18.848;2023-04-24T07:50:24;97597.02;;;25.97;20.73
62436;BME280;48480;50.252;18.848;2023-04-24T07:53:08;97594.37;;;25.95;20.66
62436;BME280;48480;50.252;18.848;2023-04-24T07:55:55;97595.40;;;25.97;20.68
62436;BME280;48480;50.252;18.848;2023-04-24T07:58:43;97594.30;;;26.07;20.43
62436;BME280;48480;50.252;18.848;2023-04-24T08:01:29;97584.84;;;26.16;20.47
62436;BME280;48480;50.252;18.848;2023-04-24T08:04:14;97583.85;;;26.25;20.63
62436;BME280;48480;50.252;18.848;2023-04-24T08:06:59;97581.63;;;26.38;20.30
62436;BME280;48480;50.252;18.848;2023-04-24T08:09:44;97574.88;;;26.57;20.17
62436;BME280;48480;50.252;18.848;2023-04-24T08:12:29;97574.63;;;26.74;19.99
62436;BME280;48480;50.252;18.848;2023-04-24T08:15:13;97572.23;;;26.73;20.05
62436;BME280;48480;50.252;18.848;2023-04-24T08:17:57;97571.34;;;26.62;20.17
62436;BME280;48480;50.252;18.848;2023-04-24T08:20:41;97574.59;;;26.68;20.14
62436;BME280;48480;50.252;18.848;2023-04-24T08:23:27;97572.44;;;26.78;20.16
62436;BME280;48480;50.252;18.848;2023-04-24T08:26:12;97573.52;;;26.88;20.11
62436;BME280;48480;50.252;18.848;2023-04-24T08:28:56;97570.16;;;26.71;20.37
62436;BME280;48480;50.252;18.848;2023-04-24T08:31:41;97570.36;;;26.43;20.85
62436;BME280;48480;50.252;18.848;2023-04-24T08:34:25;97572.69;;;26.32;20.98
62436;BME280;48480;50.252;18.848;2023-04-24T08:37:09;97572.66;;;26.36;21.00
62436;BME280;48480;50.252;18.848;2023-04-24T08:39:54;97568.95;;;26.41;21.06
62436;BME280;48480;50.252;18.848;2023-04-24T08:42:39;97569.21;;;26.28;21.16
62436;BME280;48480;50.252;18.848;2023-04-24T08:45:24;97566.50;;;26.02;21.26
62436;BME280;48480;50.252;18.848;2023-04-24T08:48:09;97568.36;;;25.84;21.34
62436;BME280;48480;50.252;18.848;2023-04-24T08:51:02;97563.67;;;25.68;21.55
62436;BME280;48480;50.252;18.848;2023-04-24T08:53:53;97557.25;;;25.73;21.68
62436;BME280;48480;50.252;18.848;2023-04-24T08:56:38;97558.61;;;25.75;21.68
62436;BME280;48480;50.252;18.848;2023-04-24T08:59:24;97554.73;;;25.78;21.76
62436;BME280;48480;50.252;18.848;2023-04-24T09:02:10;97550.63;;;25.76;21.92
62436;BME280;48480;50.252;18.848;2023-04-24T09:04:55;97554.91;;;25.80;22.19
62436;BME280;48480;50.252;18.848;2023-04-24T09:07:41;97555.98;;;25.83;22.10
62436;BME280;48480;50.252;18.848;2023-04-24T09:10:29;97554.95;;;25.78;22.00
62436;BME280;48480;50.252;18.848;2023-04-24T09:13:14;97553.48;;;25.83;22.26
62436;BME280;48480;50.252;18.848;2023-04-24T09:15:58;97550.51;;;25.91;22.54
62436;BME280;48480;50.252;18.848;2023-04-24T09:18:44;97557.25;;;25.94;22.65
62436;BME280;48480;50.252;18.848;2023-04-24T09:21:33;97552.31;;;25.93;22.50
62436;BME280;48480;50.252;18.848;2023-04-24T09:24:20;97553.07;;;25.97;22.30
62436;BME280;48480;50.252;18.848;2023-04-24T09:27:06;97546.83;;;26.01;22.44
62436;BME280;48480;50.252;18.848;2023-04-24T09:29:55;97544.61;;;25.97;22.60
62436;BME280;48480;50.252;18.848;2023-04-24T09:32:41;97545.34;;;25.99;22.53
62436;BME280;48480;50.252;18.848;2023-04-24T09:35:26;97534.39;;;26.02;22.44
62436;BME280;48480;50.252;18.848;2023-04-24T09:38:11;97534.44;;;26.20;22.57
62436;BME280;48480;50.252;18.848;2023-04-24T09:40:59;97536.77;;;26.40;22.19
62436;BME280;48480;50.252;18.848;2023-04-24T09:43:44;97531.02;;;26.43;22.23
62436;BME280;48480;50.252;18.848;2023-04-24T09:46:32;97533.30;;;26.45;22.44
62436;BME280;48480;50.252;18.848;2023-04-24T09:49:24;97531.03;;;26.33;22.25
62436;BME280;48480;50.252;18.848;2023-04-24T09:52:10;97527.61;;;25.95;22.67
62436;BME280;48480;50.252;18.848;2023-04-24T09:54:55;97531.83;;;25.52;22.91
62436;BME280;48480;50.252;18.848;2023-04-24T09:57:52;97534.42;;;25.04;23.34
62436;BME280;48480;50.252;18.848;2023-04-24T10:00:37;97536.06;;;24.60;24.16
62436;BME280;48480;50.252;18.848;2023-04-24T10:03:26;97536.91;;;24.26;24.65
62436;BME280;48480;50.252;18.848;2023-04-24T10:06:11;97534.58;;;23.95;24.81
62436;BME280;48480;50.252;18.848;2023-04-24T10:08:55;97532.17;;;23.76;25.12
62436;BME280;48480;50.252;18.848;2023-04-24T10:11:44;97529.42;;;23.66;25.19
62436;BME280;48480;50.252;18.848;2023-04-24T10:14:31;97523.81;;;23.65;25.35
62436;BME280;48480;50.252;18.848;2023-04-24T10:17:15;97524.81;;;23.66;25.36
62436;BME280;48480;50.252;18.848;2023-04-24T10:20:00;97531.29;;;23.53;25.66
62436;BME280;48480;50.252;18.848;2023-04-24T10:22:48;97533.75;;;23.43;26.03
62436;BME280;48480;50.252;18.848;2023-04-24T10:25:35;97532.25;;;23.37;26.26
62436;BME280;48480;50.252;18.848;2023-04-24T10:28:20;97533.29;;;23.28;26.42
62436;BME280;48480;50.252;18.848;2023-04-24T10:31:06;97535.31;;;23.17;26.47
62436;BME280;48480;50.252;18.848;2023-04-24T10:33:52;97529.66;;;23.06;26.66
62436;BME280;48480;50.252;18.848;2023-04-24T10:36:45;97527.92;;;22.94;26.88
62436;BME280;48480;50.252;18.848;2023-04-24T10:39:31;97531.42;;;22.78;27.11
62436;BME280;48480;50.252;18.848;2023-04-24T10:42:19;97525.85;;;22.63;27.19
62436;BME280;48480;50.252;18.848;2023-04-24T10:45:16;97524.95;;;22.52;27.53
62436;BME280;48480;50.252;18.848;2023-04-24T10:48:04;97523.27;;;22.36;27.74
62436;BME280;48480;50.252;18.848;2023-04-24T10:50:53;97521.64;;;22.20;27.93
62436;BME280;48480;50.252;18.848;2023-04-24T10:53:37;97520.89;;;22.04;28.19
62436;BME280;48480;50.252;18.848;2023-04-24T10:56:21;97528.85;;;21.77;28.67
62436;BME280;48480;50.252;18.848;2023-04-24T10:59:07;97529.73;;;21.48;29.40
62436;BME280;48480;50.252;18.848;2023-04-24T11:01:54;97531.14;;;21.21;29.70
62436;BME280;48480;50.252;18.848;2023-04-24T11:04:41;97531.94;;;20.92;30.25
62436;BME280;48480;50.252;18.848;2023-04-24T11:07:30;97534.19;;;20.72;30.80
62436;BME280;48480;50.252;18.848;2023-04-24T11:10:26;97538.35;;;20.58;31.03
62436;BME280;48480;50.252;18.848;2023-04-24T11:13:10;97534.61;;;20.40;31.41
62436;BME280;48480;50.252;18.848;2023-04-24T11:16:26;97536.05;;;20.28;31.69
62436;BME280;48480;50.252;18.848;2023-04-24T11:22:14;97545.31;;;20.07;32.17
62436;BME280;48480;50.252;18.848;2023-04-24T11:25:02;97543.96;;;20.00;32.56
62436;BME280;48480;50.252;18.848;2023-04-24T11:28:03;97546.25;;;19.94;32.58
62436;BME280;48480;50.252;18.848;2023-04-24T11:30:50;97545.36;;;19.90;32.72
62436;BME280;48480;50.252;18.848;2023-04-24T11:33:41;97545.00;;;19.84;32.91
62436;BME280;48480;50.252;18.848;2023-04-24T11:36:37;97546.19;;;19.82;33.18
62436;BME280;48480;50.252;18.848;2023-04-24T11:39:57;97547.66;;;19.83;33.30
62436;BME280;48480;50.252;18.848;2023-04-24T11:42:51;97545.64;;;19.80;33.60
62436;BME280;48480;50.252;18.848;2023-04-24T11:45:35;97545.67;;;19.78;33.73
62436;BME280;48480;50.252;18.848;2023-04-24T11:48:21;97545.38;;;19.72;33.94
62436;BME280;48480;50.252;18.848;2023-04-24T11:51:09;97547.49;;;19.66;33.90
62436;BME280;48480;50.252;18.848;2023-04-24T11:53:56;97548.84;;;19.62;34.14
62436;BME280;48480;50.252;18.848;2023-04-24T11:56:47;97546.54;;;19.59;34.37
62436;BME280;48480;50.252;18.848;2023-04-24T11:59:36;97544.67;;;19.56;34.55
62436;BME280;48480;50.252;18.848;2023-04-24T12:02:26;97543.67;;;19.54;34.89
62436;BME280;48480;50.252;18.848;2023-04-24T12:05:27;97540.35;;;19.51;34.87
62436;BME280;48480;50.252;18.848;2023-04-24T12:08:12;97539.21;;;19.47;35.13
62436;BME280;48480;50.252;18.848;2023-04-24T12:11:15;97539.77;;;19.45;35.64
62436;BME280;48480;50.252;18.848;2023-04-24T12:14:11;97540.96;;;19.39;36.27
62436;BME280;48480;50.252;18.848;2023-04-24T12:16:56;97544.19;;;19.30;36.66
62436;BME280;48480;50.252;18.848;2023-04-24T12:19:46;97540.88;;;19.22;37.02
62436;BME280;48480;50.252;18.848;2023-04-24T12:22:48;97540.20;;;19.16;37.37
62436;BME280;48480;50.252;18.848;2023-04-24T12:25:50;97541.54;;;19.13;37.68
62436;BME280;48480;50.252;18.848;2023-04-24T12:29:06;97541.79;;;19.08;37.92
62436;BME280;48480;50.252;18.848;2023-04-24T12:32:20;97539.71;;;19.02;38.38
62436;BME280;48480;50.252;18.848;2023-04-24T12:35:19;97545.34;;;18.91;38.75
62436;BME280;48480;50.252;18.848;2023-04-24T12:38:15;97544.59;;;18.84;39.13
62436;BME280;48480;50.252;18.848;2023-04-24T12:41:30;97541.39;;;18.83;39.28
62436;BME280;48480;50.252;18.848;2023-04-24T12:44:36;97545.59;;;18.85;39.50
62436;BME280;48480;50.252;18.848;2023-04-24T12:47:24;97544.18;;;18.80;39.55
62436;BME280;48480;50.252;18.848;2023-04-24T12:50:12;97544.27;;;18.74;39.17
62436;BME280;48480;50.252;18.848;2023-04-24T12:53:10;97540.99;;;18.72;39.31
62436;BME280;48480;50.252;18.848;2023-04-24T12:56:32;97541.70;;;18.74;39.68
62436;BME280;48480;50.252;18.848;2023-04-24T12:59:28;97543.56;;;18.77;39.80
62436;BME280;48480;50.252;18.848;2023-04-24T13:02:34;97543.23;;;18.76;39.87
62436;BME280;48480;50.252;18.848;2023-04-24T13:05:36;97538.83;;;18.74;40.28
62436;BME280;48480;50.252;18.848;2023-04-24T13:11:50;97524.11;;;18.57;40.46
62436;BME280;48480;50.252;18.848;2023-04-24T13:14:40;97521.57;;;18.54;40.55
62436;BME280;48480;50.252;18.848;2023-04-24T13:17:40;97521.65;;;18.49;40.46
62436;BME280;48480;50.252;18.848;2023-04-24T13:20:55;97522.20;;;18.42;40.60
62436;BME280;48480;50.252;18.848;2023-04-24T13:24:05;97517.88;;;18.33;40.96
62436;BME280;48480;50.252;18.848;2023-04-24T13:26:52;97519.27;;;18.23;41.29
62436;BME280;48480;50.252;18.848;2023-04-24T13:29:49;97512.84;;;18.12;41.78
62436;BME280;48480;50.252;18.848;2023-04-24T13:32:49;97506.62;;;17.90;42.48
62436;BME280;48480;50.252;18.848;2023-04-24T13:35:47;97504.89;;;17.72;43.16
62436;BME280;48480;50.252;18.848;2023-04-24T13:38:59;97505.81;;;17.66;43.71
62436;BME280;48480;50.252;18.848;2023-04-24T13:45:34;97502.73;;;17.41;44.56
62436;BME280;48480;50.252;18.848;2023-04-24T13:48:25;97502.88;;;17.32;44.84
62436;BME280;48480;50.252;18.848;2023-04-24T13:51:15;97502.70;;;17.27;45.24
62436;BME280;48480;50.252;18.848;2023-04-24T13:54:08;97501.98;;;17.21;45.63
62436;BME280;48480;50.252;18.848;2023-04-24T13:56:57;97498.55;;;17.15;45.93
62436;BME280;48480;50.252;18.848;2023-04-24T13:59:45;97500.39;;;17.12;46.06
62436;BME280;48480;50.252;18.848;2023-04-24T14:02:40;97502.20;;;17.16;46.13
62436;BME280;48480;50.252;18.848;2023-04-24T14:05:32;97500.05;;;17.21;46.35
62436;BME280;48480;50.252;18.848;2023-04-24T14:08:22;97498.19;;;17.20;46.39
62436;BME280;48480;50.252;18.848;2023-04-24T14:11:19;97502.27;;;17.17;46.64
62436;BME280;48480;50.252;18.848;2023-04-24T14:14:04;97509.85;;;17.13;46.87
62436;BME280;48480;50.252;18.848;2023-04-24T14:16:59;97508.73;;;17.07;47.44
62436;BME280;48480;50.252;18.848;2023-04-24T14:19:51;97508.33;;;16.99;48.14
62436;BME280;48480;50.252;18.848;2023-04-24T14:22:50;97506.30;;;16.95;48.65
62436;BME280;48480;50.252;18.848;2023-04-24T14:25:48;97502.66;;;16.95;49.11
62436;BME280;48480;50.252;18.848;2023-04-24T14:28:43;97496.55;;;16.99;49.31
62436;BME280;48480;50.252;18.848;2023-04-24T14:31:36;97495.80;;;17.03;49.45
62436;BME280;48480;50.252;18.848;2023-04-24T14:34:40;97491.42;;;17.12;49.41
62436;BME280;48480;50.252;18.848;2023-04-24T14:37:34;97496.24;;;17.19;49.04
62436;BME280;48480;50.252;18.848;2023-04-24T14:40:26;97495.48;;;17.21;48.70
62436;BME280;48480;50.252;18.848;2023-04-24T14:43:12;97494.92;;;17.17;48.77
62436;BME280;48480;50.252;18.848;2023-04-24T14:46:00;97496.84;;;17.10;48.61